Flight Track Log - Related Links

Times and Time Zones

All times are in EDT time to prevent confusion due to time zone crossing. See the UAL4401 flight status page for this flight to view local times or setup timezone preferences in your user account.


Time Position Orientation Groundspeed Altitude Reporting Facility
EDT Latitude Longitude Course Direction KTS MPH feet Rate Location/Type
Thu 10:20:25 PM 29.9756 -95.3347 252° West 153 176 600  Level Houston Center
Thu 10:21:07 PM 29.9681 -95.3619 252° West 174 200 1,600 1,918 Climbing Houston Center
Thu 10:22:02 PM 29.9078 -95.3283 154° Southeast 266 306 3,700 1,279 Climbing Houston Center
Thu 10:23:09 PM 29.8667 -95.2467 120° Southeast 282 325 4,200 923 Climbing Houston Center
Thu 10:24:12 PM 29.8342 -95.1636 114° Southeast 282 325 5,700 2,081 Climbing Houston Center
Thu 10:25:13 PM 29.8294 -95.0694 93° East 292 336 8,500 2,361 Climbing Houston Center
Thu 10:26:14 PM 29.8344 -94.9700 87° East 303 349 10,500 1,366 Climbing Houston Center
Thu 10:27:16 PM 29.8400 -94.8514 87° East 360 414 11,300 1,268 Climbing Houston Center
Thu 10:28:17 PM 29.8456 -94.7275 87° East 387 445 13,100 1,463 Climbing Houston Center
Thu 10:29:19 PM 29.8503 -94.5986 88° East 399 459 14,300 1,220 Climbing Houston Center
Thu 10:30:20 PM 29.8553 -94.4639 88° East 417 480 15,600 1,366 Climbing Houston Center
Thu 10:31:22 PM 29.8606 -94.3289 87° East 423 487 17,100 1,610 Climbing Houston Center
Thu 10:32:23 PM 29.8572 -94.1658 91° East 424 488 18,900 1,610 Climbing Houston Center
Thu 10:33:25 PM 29.8569 -94.0250 90° East 434 499 20,400 1,597 Climbing Houston Center
Thu 10:34:27 PM 29.8664 -93.8911 85° East 435 501 22,200 1,561 Climbing Houston Center
Thu 10:35:28 PM 29.8828 -93.7542 82° East 433 498 23,600 1,377 Climbing Houston Center
Thu 10:36:29 PM 29.8961 -93.6158 84° East 433 498 25,000 1,268 Climbing Houston Center
Thu 10:37:31 PM 29.9117 -93.4761 83° East 439 505 26,200 1,073 Climbing Houston Center
Thu 10:38:32 PM 29.9267 -93.3325 83° East 449 517 27,200 1,268 Climbing Houston Center
Thu 10:39:34 PM 29.9442 -93.1764 83° East 453 521 28,800 1,512 Climbing Houston Center
Thu 10:40:35 PM 29.9578 -93.0347 84° East 449 517 30,300 1,180 Climbing Houston Center
Thu 10:41:36 PM 29.9719 -92.8886 84° East 454 522 31,200 976 Climbing Houston Center
Thu 10:42:38 PM 29.9836 -92.7400 85° East 464 534 32,300 1,366 Climbing Houston Center
Thu 10:43:39 PM 29.9981 -92.5589 85° East 473 544 34,000 1,317 Climbing Houston Center
Thu 10:44:41 PM 30.0097 -92.4131 85° East 462 532 35,000 488 Climbing Houston Center
Thu 10:45:42 PM 30.0219 -92.2631 85° East 469 540 35,000  Level Houston Center
Thu 10:46:43 PM 30.0336 -92.1025 85° East 502 578 35,000  Level Houston Center
Thu 10:47:45 PM 30.0458 -91.9364 85° East 520 598 35,000  Level Houston Center
Thu 10:48:46 PM 30.0592 -91.7633 85° East 539 620 35,000  Level Houston Center
Thu 10:49:47 PM 30.0742 -91.5714 85° East 546 628 35,000  Level Houston Center
Thu 10:50:49 PM 30.0867 -91.4008 85° East 536 617 35,000  Level Houston Center
Thu 10:51:50 PM 30.0981 -91.2319 86° East 530 610 35,000  Level Houston Center
Thu 10:52:51 PM 30.1353 -91.0689 75° East 528 608 35,000  Level Houston Center
Thu 10:53:52 PM 30.1903 -90.9122 68° East 530 610 35,000  Level Houston Center
Thu 10:54:54 PM 30.2461 -90.7556 68° East 526 605 35,000  Level Houston Center
Thu 10:55:55 PM 30.3011 -90.5992 68° East 525 604 35,000  Level Houston Center
Thu 10:56:56 PM 30.3539 -90.4439 68° East 520 598 35,000  Level Houston Center
Thu 10:57:57 PM 30.4331 -90.2625 63° Northeast 522 601 35,000  Level Houston Center
Thu 10:58:58 PM 30.5042 -90.1153 61° Northeast 520 598 35,000  Level Houston Center
Thu 11:00:00 PM 30.5758 -89.9672 61° Northeast 520 598 35,000  Level Houston Center
Thu 11:01:01 PM 30.6456 -89.8181 61° Northeast 518 596 35,000  Level Houston Center
Thu 11:02:02 PM 30.7161 -89.6694 61° Northeast 519 597 35,000  Level Houston Center
Thu 11:03:03 PM 30.7853 -89.5208 62° Northeast 519 597 35,000  Level Houston Center
Thu 11:04:04 PM 30.8522 -89.3739 62° Northeast 516 594 35,000  Level Houston Center
Thu 11:05:05 PM 30.9214 -89.2267 61° Northeast 517 595 35,000  Level Houston Center
Thu 11:06:07 PM 30.9886 -89.0794 62° Northeast 514 592 35,000  Level Houston Center
Thu 11:07:08 PM 31.0619 -88.9228 61° Northeast 516 594 35,000  Level Houston Center
Thu 11:08:09 PM 31.1297 -88.7753 62° Northeast 514 592 35,000  Level Houston Center
Thu 11:09:10 PM 31.1981 -88.6272 62° Northeast 515 593 35,000  Level Houston Center
Thu 11:10:11 PM 31.2667 -88.4794 61° Northeast 512 589 35,000  Level Houston Center
Thu 11:11:05 PM 31.3247 -88.3558 61° Northeast 512 589 35,000  Level Atlanta Center
Thu 11:12:05 PM 31.3925 -88.2081 62° Northeast 507 583 35,000  Level Atlanta Center
Thu 11:13:05 PM 31.4578 -88.0603 63° Northeast 507 583 35,000  Level Atlanta Center
Thu 11:14:05 PM 31.5253 -87.9147 61° Northeast 507 583 35,000  Level Atlanta Center
Thu 11:15:05 PM 31.5922 -87.7664 62° Northeast 507 583 35,000  Level Atlanta Center
Thu 11:16:05 PM 31.6550 -87.6228 63° Northeast 502 578 35,000  Level Atlanta Center
Thu 11:17:05 PM 31.7194 -87.4836 61° Northeast 497 572 35,000  Level Atlanta Center
Thu 11:18:05 PM 31.7864 -87.3225 64° Northeast 492 566 35,000  Level Atlanta Center
Thu 11:19:05 PM 31.8508 -87.1758 63° Northeast 492 566 35,000  Level Atlanta Center
Thu 11:20:05 PM 31.9128 -87.0311 63° Northeast 492 566 35,000  Level Atlanta Center
Thu 11:21:05 PM 31.9789 -86.8814 62° Northeast 497 572 35,000  Level Atlanta Center
Thu 11:22:05 PM 32.0428 -86.7364 63° Northeast 497 572 35,000  Level Atlanta Center
Thu 11:23:05 PM 32.1061 -86.6083 60° Northeast 492 566 35,000  Level Atlanta Center
Thu 11:24:05 PM 32.1675 -86.4606 64° Northeast 492 566 35,000  Level Atlanta Center
Thu 11:25:05 PM 32.2242 -86.3344 62° Northeast 486 559 35,000  Level Atlanta Center
Thu 11:26:05 PM 32.3103 -86.1867 55° Northeast 491 565 35,000  Level Atlanta Center
Thu 11:27:05 PM 32.3958 -86.0608 51° Northeast 491 565 35,000  Level Atlanta Center
Thu 11:28:05 PM 32.4856 -85.9325 50° Northeast 491 565 35,000  Level Atlanta Center
Thu 11:29:05 PM 32.5711 -85.8036 52° Northeast 496 571 35,000 300 Level Atlanta Center
Thu 11:30:05 PM 32.6500 -85.6819 52° Northeast 482 555 35,600 500 Climbing Atlanta Center
Thu 11:31:05 PM 32.7328 -85.5625 50° Northeast 469 540 36,000 200 Climbing Atlanta Center
Thu 11:32:05 PM 32.8136 -85.4403 52° Northeast 469 540 36,000  Level Atlanta Center
Thu 11:33:05 PM 32.8986 -85.3131 51° Northeast 475 547 36,000  Level Atlanta Center
Thu 11:34:05 PM 32.9811 -85.1853 52° Northeast 480 552 36,000 150 Level Atlanta Center
Thu 11:35:05 PM 33.0617 -85.0625 52° Northeast 475 547 36,300 500 Climbing Atlanta Center
Thu 11:36:05 PM 33.1439 -84.9369 52° Northeast 469 540 37,000 350 Climbing Atlanta Center
Thu 11:37:05 PM 33.2261 -84.8136 51° Northeast 474 545 37,000  Level Atlanta Center
Thu 11:38:05 PM 33.3103 -84.6850 52° Northeast 479 551 37,000  Level Atlanta Center
Thu 11:39:05 PM 33.3903 -84.5589 53° Northeast 485 558 37,000  Level Atlanta Center
Thu 11:40:05 PM 33.4828 -84.4175 52° Northeast 485 558 37,000  Level Atlanta Center
Thu 11:41:05 PM 33.5622 -84.2856 54° Northeast 485 558 37,000  Level Atlanta Center
Thu 11:42:05 PM 33.6461 -84.1561 52° Northeast 485 558 37,000  Level Atlanta Center
Thu 11:43:05 PM 33.7317 -84.0289 51° Northeast 485 558 37,000  Level Atlanta Center
Thu 11:44:05 PM 33.8131 -83.8989 53° Northeast 485 558 37,000  Level Atlanta Center
Thu 11:45:05 PM 33.8942 -83.7711 53° Northeast 480 552 37,000  Level Atlanta Center
Thu 11:46:05 PM 33.9731 -83.6456 53° Northeast 480 552 37,000  Level Atlanta Center
Thu 11:47:05 PM 34.0539 -83.5172 53° Northeast 480 552 37,000  Level Atlanta Center
Thu 11:48:05 PM 34.1328 -83.3914 53° Northeast 480 552 37,000  Level Atlanta Center
Thu 11:49:05 PM 34.2156 -83.2600 53° Northeast 485 558 37,000  Level Atlanta Center
Thu 11:50:05 PM 34.2961 -83.1336 52° Northeast 479 551 37,000  Level Atlanta Center
Thu 11:51:05 PM 34.3703 -83.0094 54° Northeast 474 545 37,000  Level Atlanta Center
Thu 11:52:05 PM 34.4464 -82.8903 52° Northeast 455 524 37,000  Level Atlanta Center
Thu 11:53:05 PM 34.5222 -82.7681 53° Northeast 449 517 37,000  Level Atlanta Center
Thu 11:54:05 PM 34.5983 -82.6483 52° Northeast 454 522 37,000  Level Atlanta Center
Thu 11:55:05 PM 34.6617 -82.5386 55° Northeast 448 516 37,000  Level Atlanta Center
Thu 11:56:05 PM 34.7372 -82.4161 53° Northeast 443 510 37,000  Level Atlanta Center
Thu 11:57:05 PM 34.8108 -82.2958 53° Northeast 443 510 37,000  Level Atlanta Center
Thu 11:58:05 PM 34.8861 -82.1750 53° Northeast 443 510 37,000  Level Atlanta Center
Thu 11:59:05 PM 34.9697 -82.0389 53° Northeast 443 510 37,000  Level Atlanta Center
Fri 12:00:05 AM 35.0444 -81.9053 56° Northeast 470 541 37,000  Level Atlanta Center
Fri 12:01:05 AM 35.1172 -81.7739 56° Northeast 470 541 37,000  Level Atlanta Center
Fri 12:02:05 AM 35.1858 -81.6422 57° Northeast 465 535 37,000  Level Atlanta Center
Fri 12:03:05 AM 35.2439 -81.5286 58° Northeast 452 520 37,000  Level Atlanta Center
Fri 12:04:05 AM 35.3103 -81.4044 57° Northeast 441 507 37,000  Level Atlanta Center
Fri 12:05:05 AM 35.3722 -81.2778 59° Northeast 436 502 37,000  Level Atlanta Center
Fri 12:06:05 AM 35.4400 -81.1431 58° Northeast 448 516 37,000  Level Atlanta Center
Fri 12:07:05 AM 35.5119 -81.0128 56° Northeast 462 532 37,000  Level Atlanta Center
Fri 12:08:05 AM 35.5817 -80.8775 58° Northeast 462 532 37,000  Level Atlanta Center
Fri 12:09:47 AM 35.7094 -80.6364 57° Northeast 466 536 37,000  Level Washington Center
Fri 12:10:47 AM 35.7756 -80.5050 58° Northeast 459 528 37,000  Level Washington Center
Fri 12:11:47 AM 35.8433 -80.3733 58° Northeast 451 519 37,000  Level Washington Center
Fri 12:12:47 AM 35.8981 -80.2614 59° Northeast 437 503 37,000  Level Washington Center
Fri 12:13:47 AM 35.9633 -80.1342 58° Northeast 431 496 37,000  Level Washington Center
Fri 12:14:47 AM 36.0286 -80.0122 56° Northeast 425 489 37,000  Level Washington Center
Fri 12:15:47 AM 36.1039 -79.8931 52° Northeast 425 489 37,000  Level Washington Center
Fri 12:16:47 AM 36.1939 -79.7667 49° Northeast 431 496 37,000  Level Washington Center
Fri 12:17:47 AM 36.2750 -79.6500 49° Northeast 442 509 37,000  Level Washington Center
Fri 12:18:47 AM 36.3472 -79.5481 49° Northeast 442 509 37,000 -400 Level Washington Center
Fri 12:19:47 AM 36.4372 -79.4156 50° Northeast 448 516 36,200 -1,250 Descending Washington Center
Fri 12:20:47 AM 36.5114 -79.3108 49° Northeast 448 516 34,500 -1,550 Descending Washington Center
Fri 12:21:47 AM 36.5944 -79.1931 49° Northeast 443 510 33,100 -1,550 Descending Washington Center
Fri 12:22:47 AM 36.6814 -79.0675 49° Northeast 443 510 31,400 -1,550 Descending Washington Center
Fri 12:23:47 AM 36.7619 -78.9572 48° Northeast 437 503 30,000 -1,350 Descending Washington Center
Fri 12:24:47 AM 36.8544 -78.8572 41° Northeast 432 497 28,700 -1,350 Descending Washington Center
Fri 12:25:47 AM 36.9553 -78.7525 40° Northeast 443 510 27,300 -1,400 Descending Washington Center
Fri 12:26:47 AM 37.0494 -78.6547 40° Northeast 471 542 25,900 -1,150 Descending Washington Center
Fri 12:27:47 AM 37.1525 -78.5469 40° Northeast 471 542 25,000 -850 Descending Washington Center
Fri 12:28:47 AM 37.2531 -78.4439 39° Northeast 471 542 24,200 -950 Descending Washington Center
Fri 12:29:47 AM 37.3619 -78.3303 40° Northeast 466 536 23,100 -1,000 Descending Washington Center
Fri 12:30:47 AM 37.4603 -78.2264 40° Northeast 466 536 22,200 -950 Descending Washington Center
Fri 12:31:47 AM 37.5564 -78.1225 41° Northeast 461 531 21,200 -950 Descending Washington Center
Fri 12:32:47 AM 37.6544 -78.0156 41° Northeast 461 531 20,300 -950 Descending Washington Center
Fri 12:33:47 AM 37.7483 -77.9133 41° Northeast 461 531 19,300 -950 Descending Washington Center
Fri 12:34:47 AM 37.8442 -77.8111 40° Northeast 456 525 18,400 -1,300 Descending Washington Center
Fri 12:35:47 AM 37.9356 -77.7139 40° Northeast 445 512 16,700 -2,200 Descending Washington Center
Fri 12:36:47 AM 38.0269 -77.6136 41° Northeast 433 498 14,000 -2,550 Descending Washington Center
Fri 12:37:47 AM 38.1053 -77.5367 38° Northeast 418 481 11,600 -2,000 Descending Washington Center
Fri 12:38:47 AM 38.1839 -77.4489 41° Northeast 390 449 10,000 -850 Descending Washington Center
Fri 12:39:47 AM 38.2639 -77.3978 27° Northeast 354 407 9,900 -500 Descending Washington Center
Fri 12:40:47 AM 38.3458 -77.3575 21° North 330 380 9,000 -1,350 Descending Washington Center
Fri 12:41:47 AM 38.4292 -77.3594 359° North 301 346 7,200 -1,600 Descending Washington Center
Fri 12:42:47 AM 38.5125 -77.3642 357° North 295 339 5,800 -1,100 Descending Washington Center
Fri 12:43:47 AM 38.5897 -77.3658 359° North 283 326 5,000 -955 Descending Washington Center
Fri 12:44:15 AM 38.6333 -77.3667 359° North 291 335 4,400 -682 Descending Potomac TRACON
Fri 12:45:15 AM 38.7167 -77.3667 360° North 293 337 4,000 -200 Descending Potomac TRACON
Fri 12:46:15 AM 38.8000 -77.3500 North 294 338 4,000 -313 Level Potomac TRACON
Fri 12:48:27 AM 38.9833 -77.3500 360° North 293 337 3,000 -375 Descending Potomac TRACON
Fri 12:49:27 AM 39.0500 -77.3500 360° North 282 325 2,800 -526 Descending Potomac TRACON
Fri 12:50:21 AM 39.1000 -77.4000 322° Northwest 222 255 2,000 -579 Descending Potomac TRACON
Fri 12:51:21 AM 39.0667 -77.4333 218° Southwest 157 181 1,700 -200 Descending Potomac TRACON
Fri 12:52:21 AM 39.0167 -77.4333 180° South 137 158 1,600 -100 Descending Potomac TRACON

Login

Don't have an account? Register now (free) for customized features, flight alerts, and more!